Avalon, Missouri
Current Conditions -  °F | °C
As of 3:55 AM on Friday 24 Oct 2014 (Local Time) from KGPH Reporting Station
Moderate Fog Moderate Fog  
Wind Chill: 52°   Ceiling: 100
Heat Index: 52°   Visibility: 0.25mi
Dew Point: 52°   Wind: 0mph
Humidity: 100%   Direction: NA
Pressure: 30.07"   Gusts: NA
Location:  39.66°N, 93.44°W
Report Text: KGPH 240855Z AUTO 00000KT 1/4SM FG OVC001 11/11 A3007 RMK AO2
Loading
Personal Weather Stations






























Interactive Weather Map New forecast layout! Learn more

10-Day Weather Forecast

Advertisements
Track Severe Weather on mobile